createdAt,value
2022-12-27T00:00:14.756Z,0.00
2022-12-27T00:01:14.742Z,0.00
2022-12-27T00:02:14.762Z,0.00
2022-12-27T00:03:14.758Z,0.00
2022-12-27T00:04:14.687Z,0.00
2022-12-27T00:05:14.704Z,0.00
2022-12-27T00:06:14.721Z,0.00
2022-12-27T00:07:14.707Z,0.00
2022-12-27T00:08:14.648Z,0.00
2022-12-27T00:09:14.654Z,0.00
2022-12-27T00:10:14.612Z,0.00
2022-12-27T00:11:14.685Z,0.00
2022-12-27T00:12:14.606Z,0.00
2022-12-27T00:13:14.616Z,0.00
2022-12-27T00:14:14.588Z,0.00
2022-12-27T00:15:14.601Z,0.00
2022-12-27T00:16:14.592Z,0.00
2022-12-27T00:17:14.627Z,0.00
2022-12-27T00:18:14.546Z,0.00
2022-12-27T00:19:14.588Z,0.00
2022-12-27T00:20:14.554Z,0.00
2022-12-27T00:21:14.542Z,0.00
2022-12-27T00:22:14.503Z,0.00
2022-12-27T00:23:14.512Z,0.00
2022-12-27T00:24:14.500Z,0.00
2022-12-27T00:25:14.490Z,0.00
2022-12-27T00:26:14.483Z,0.00
2022-12-27T00:27:14.460Z,0.00
2022-12-27T00:28:14.429Z,0.00
2022-12-27T00:29:14.459Z,0.00
2022-12-27T00:30:14.471Z,0.00
2022-12-27T00:31:14.450Z,0.00
2022-12-27T00:32:14.407Z,0.00
2022-12-27T00:33:14.417Z,0.00
2022-12-27T00:34:14.370Z,0.00
2022-12-27T00:35:14.381Z,0.00
2022-12-27T00:36:14.397Z,0.00
2022-12-27T00:37:14.437Z,0.00
2022-12-27T00:38:14.362Z,0.00
2022-12-27T00:39:14.333Z,0.00
2022-12-27T00:40:14.351Z,0.00
2022-12-27T00:41:14.339Z,0.00
2022-12-27T00:42:14.328Z,0.00
2022-12-27T00:43:14.295Z,0.00
2022-12-27T00:44:14.285Z,0.00
2022-12-27T00:45:14.348Z,0.00
2022-12-27T00:46:14.306Z,0.00
2022-12-27T00:47:14.261Z,0.00
2022-12-27T00:48:14.238Z,0.00
2022-12-27T00:49:14.257Z,0.00
2022-12-27T00:50:14.206Z,0.00
2022-12-27T00:51:14.247Z,0.00
2022-12-27T00:52:14.223Z,0.00
2022-12-27T00:53:14.205Z,0.00
2022-12-27T00:54:14.166Z,0.00
2022-12-27T00:55:14.232Z,0.00
2022-12-27T00:56:14.149Z,0.00
2022-12-27T00:57:14.158Z,0.00
2022-12-27T00:58:14.151Z,0.00
2022-12-27T00:59:14.182Z,0.00
2022-12-27T01:00:14.123Z,0.00
2022-12-27T01:01:14.328Z,0.00
2022-12-27T01:02:14.217Z,0.00
2022-12-27T01:03:14.169Z,0.00
2022-12-27T01:04:14.247Z,0.00
2022-12-27T01:05:14.090Z,0.00
2022-12-27T01:06:14.067Z,0.00
2022-12-27T01:07:14.093Z,0.00
2022-12-27T01:08:14.049Z,0.00
2022-12-27T01:09:14.017Z,0.00
2022-12-27T01:10:14.001Z,0.00
2022-12-27T01:11:14.049Z,0.00
2022-12-27T01:12:14.016Z,0.00
2022-12-27T01:13:14.027Z,0.00
2022-12-27T01:14:13.968Z,0.00
2022-12-27T01:15:14.023Z,0.00
2022-12-27T01:16:13.980Z,0.00
2022-12-27T01:17:13.964Z,0.00
2022-12-27T01:18:13.968Z,0.00
2022-12-27T01:19:13.942Z,0.00
2022-12-27T01:20:13.924Z,0.00
2022-12-27T01:21:13.902Z,0.00
2022-12-27T01:22:13.905Z,0.00
2022-12-27T01:23:13.917Z,0.00
2022-12-27T01:24:13.882Z,0.00
2022-12-27T01:25:13.888Z,0.00
2022-12-27T01:26:13.888Z,0.00
2022-12-27T01:27:13.893Z,0.00
2022-12-27T01:28:13.857Z,0.00
2022-12-27T01:29:13.895Z,0.00
2022-12-27T01:30:13.816Z,0.00
2022-12-27T01:31:13.834Z,0.00
2022-12-27T01:32:13.803Z,0.00
2022-12-27T01:33:13.797Z,0.00
2022-12-27T01:34:13.761Z,0.00
2022-12-27T01:35:13.809Z,0.00
2022-12-27T01:36:13.792Z,0.00
2022-12-27T01:37:13.761Z,0.00
2022-12-27T01:38:13.762Z,0.00
2022-12-27T01:39:13.739Z,0.00
2022-12-27T01:40:13.727Z,0.00
2022-12-27T01:41:13.767Z,0.00
2022-12-27T01:42:13.705Z,0.00
2022-12-27T01:43:13.694Z,0.00
2022-12-27T01:44:13.706Z,0.00
2022-12-27T01:45:13.690Z,0.00
2022-12-27T01:46:13.672Z,0.00
2022-12-27T01:47:13.677Z,0.00
2022-12-27T01:48:13.711Z,0.00
2022-12-27T01:49:13.642Z,0.00
2022-12-27T01:50:13.649Z,0.00
2022-12-27T01:51:13.633Z,0.00
2022-12-27T01:52:13.602Z,0.00
2022-12-27T01:53:13.617Z,0.00
2022-12-27T01:54:13.598Z,0.00
2022-12-27T01:55:13.574Z,0.00
2022-12-27T01:56:13.553Z,0.00
2022-12-27T01:57:13.552Z,0.00
2022-12-27T01:58:13.569Z,0.00
2022-12-27T01:59:13.530Z,0.00
2022-12-27T02:00:13.545Z,0.00
2022-12-27T02:01:13.614Z,0.00
2022-12-27T02:02:13.704Z,0.00
2022-12-27T02:03:13.545Z,0.00
2022-12-27T02:04:13.506Z,0.00
2022-12-27T02:05:13.469Z,0.00
2022-12-27T02:06:13.452Z,0.00
2022-12-27T02:07:13.471Z,0.00
2022-12-27T02:08:13.436Z,0.00
2022-12-27T02:09:13.450Z,0.00
2022-12-27T02:10:13.452Z,0.00
2022-12-27T02:11:13.420Z,0.00
2022-12-27T02:12:13.395Z,0.00
2022-12-27T02:13:13.427Z,0.00
2022-12-27T02:14:13.360Z,0.00
2022-12-27T02:15:13.388Z,0.00
2022-12-27T02:16:13.370Z,0.00
2022-12-27T02:17:13.354Z,0.00
2022-12-27T02:18:13.329Z,0.00
2022-12-27T02:19:13.345Z,0.00
2022-12-27T02:20:13.324Z,0.00
2022-12-27T02:21:13.347Z,0.00
2022-12-27T02:22:13.304Z,0.00
2022-12-27T02:23:13.297Z,0.00
2022-12-27T02:24:13.279Z,0.00
2022-12-27T02:25:13.327Z,0.00
2022-12-27T02:26:13.258Z,0.00
2022-12-27T02:27:13.276Z,0.00
2022-12-27T02:28:13.292Z,0.00
2022-12-27T02:29:13.209Z,0.00
2022-12-27T02:30:13.236Z,0.00
2022-12-27T02:31:13.324Z,0.00
2022-12-27T02:32:13.210Z,0.00
2022-12-27T02:33:13.199Z,0.00
2022-12-27T02:34:13.230Z,0.00
2022-12-27T02:35:13.234Z,0.00
2022-12-27T02:36:13.154Z,0.00
2022-12-27T02:37:13.177Z,0.00
2022-12-27T02:38:13.137Z,0.00
2022-12-27T02:39:13.186Z,0.00
2022-12-27T02:40:13.124Z,0.00
2022-12-27T02:41:13.141Z,0.00
2022-12-27T02:42:13.076Z,0.00
2022-12-27T02:43:13.135Z,0.00
2022-12-27T02:44:13.136Z,0.00
2022-12-27T02:45:13.071Z,0.00
2022-12-27T02:46:16.066Z,0.00
2022-12-27T02:47:13.079Z,0.00
2022-12-27T02:48:13.065Z,0.00
2022-12-27T02:49:13.073Z,0.00
2022-12-27T02:50:13.005Z,0.00
2022-12-27T02:51:13.025Z,0.00
2022-12-27T02:52:13.009Z,0.00
2022-12-27T02:53:13.046Z,0.00
2022-12-27T02:54:12.997Z,0.00
2022-12-27T02:55:12.971Z,0.00
2022-12-27T02:56:12.979Z,0.00
2022-12-27T02:57:12.992Z,0.00
2022-12-27T02:58:12.975Z,0.00
2022-12-27T02:59:12.951Z,0.00
2022-12-27T03:00:12.912Z,0.00
2022-12-27T03:01:13.047Z,0.00
2022-12-27T03:02:13.105Z,0.00
2022-12-27T03:03:12.998Z,0.00
2022-12-27T03:04:12.873Z,0.00
2022-12-27T03:05:12.860Z,0.00
2022-12-27T03:06:12.924Z,0.00
2022-12-27T03:07:12.900Z,0.00
2022-12-27T03:08:12.836Z,0.00
2022-12-27T03:09:12.952Z,0.00
2022-12-27T03:10:12.800Z,0.00
2022-12-27T03:11:12.841Z,0.00
2022-12-27T03:12:12.840Z,0.00
2022-12-27T03:13:12.794Z,0.00
2022-12-27T03:14:12.783Z,0.00
2022-12-27T03:15:12.772Z,0.00
2022-12-27T03:16:12.822Z,0.00
2022-12-27T03:17:12.767Z,0.00
2022-12-27T03:18:12.733Z,0.00
2022-12-27T03:19:12.753Z,0.00
2022-12-27T03:20:12.768Z,0.00
2022-12-27T03:21:12.742Z,0.00
2022-12-27T03:22:12.712Z,0.00
2022-12-27T03:23:12.690Z,0.00
2022-12-27T03:24:12.700Z,0.00
2022-12-27T03:25:12.681Z,0.00
2022-12-27T03:26:12.645Z,0.00
2022-12-27T03:27:12.640Z,0.00
2022-12-27T03:28:12.620Z,0.00
2022-12-27T03:29:12.618Z,0.00
2022-12-27T03:30:12.622Z,0.00
2022-12-27T03:31:12.655Z,0.00
2022-12-27T03:32:12.594Z,0.00
2022-12-27T03:33:12.621Z,0.00
2022-12-27T03:34:12.591Z,0.00
2022-12-27T03:35:12.559Z,0.00
2022-12-27T03:36:12.552Z,0.00
2022-12-27T03:37:12.546Z,0.00
2022-12-27T03:38:12.534Z,0.00
2022-12-27T03:39:12.523Z,0.00
2022-12-27T03:40:12.569Z,0.00
2022-12-27T03:41:12.527Z,0.00
2022-12-27T03:42:12.481Z,0.00
2022-12-27T03:43:12.508Z,0.00
2022-12-27T03:44:12.516Z,0.00
2022-12-27T03:45:12.441Z,0.00
2022-12-27T03:46:12.561Z,0.00
2022-12-27T03:47:12.454Z,0.00
2022-12-27T03:48:12.429Z,0.00
2022-12-27T03:49:12.420Z,0.00
2022-12-27T03:50:12.410Z,0.00
2022-12-27T03:51:12.452Z,0.00
2022-12-27T03:52:12.403Z,0.00
2022-12-27T03:53:12.391Z,0.00
2022-12-27T03:54:12.406Z,0.00
2022-12-27T03:55:12.358Z,0.00
2022-12-27T03:56:12.360Z,0.00
2022-12-27T03:57:12.363Z,0.00
2022-12-27T03:58:12.387Z,0.00
2022-12-27T03:59:12.331Z,0.00
2022-12-27T04:00:12.359Z,0.00
2022-12-27T04:01:12.416Z,0.00
2022-12-27T04:02:12.451Z,0.00
2022-12-27T04:03:12.298Z,0.00
2022-12-27T04:04:12.274Z,0.00
2022-12-27T04:05:12.265Z,0.00
2022-12-27T04:06:12.301Z,0.00
2022-12-27T04:07:12.239Z,0.00
2022-12-27T04:08:12.307Z,0.00
2022-12-27T04:09:12.241Z,0.00
2022-12-27T04:10:12.250Z,0.00
2022-12-27T04:11:12.211Z,0.00
2022-12-27T04:12:12.215Z,0.00
2022-12-27T04:13:12.214Z,0.00
2022-12-27T04:14:12.158Z,0.00
2022-12-27T04:15:12.160Z,0.00
2022-12-27T04:16:12.254Z,0.00
2022-12-27T04:17:12.148Z,0.00
2022-12-27T04:18:12.122Z,0.00
2022-12-27T04:19:12.157Z,0.00
2022-12-27T04:20:12.154Z,0.00
2022-12-27T04:21:12.133Z,0.00
2022-12-27T04:22:12.107Z,0.00
2022-12-27T04:23:12.139Z,0.00
2022-12-27T04:24:12.091Z,0.00
2022-12-27T04:25:12.056Z,0.00
2022-12-27T04:26:12.031Z,0.00
2022-12-27T04:27:12.045Z,0.00
2022-12-27T04:28:12.043Z,0.00
2022-12-27T04:29:12.027Z,0.00
2022-12-27T04:30:12.001Z,0.00
2022-12-27T04:31:12.026Z,0.00
2022-12-27T04:32:11.999Z,0.00
2022-12-27T04:33:12.037Z,0.00
2022-12-27T04:34:11.972Z,0.00
2022-12-27T04:35:11.991Z,0.00
2022-12-27T04:36:11.979Z,0.00
2022-12-27T04:37:11.926Z,0.00
2022-12-27T04:38:11.987Z,0.00
2022-12-27T04:39:11.940Z,0.00
2022-12-27T04:40:11.930Z,0.00
2022-12-27T04:41:11.920Z,0.00
2022-12-27T04:42:11.899Z,0.00
2022-12-27T04:43:11.917Z,0.00
2022-12-27T04:44:11.868Z,0.00
2022-12-27T04:45:15.443Z,0.00
2022-12-27T04:46:11.899Z,0.00
2022-12-27T04:47:11.842Z,0.00
2022-12-27T04:48:11.866Z,0.00
2022-12-27T04:49:11.875Z,0.00
2022-12-27T04:50:11.901Z,0.00
2022-12-27T04:51:11.828Z,0.00
2022-12-27T04:52:11.824Z,0.00
2022-12-27T04:53:11.807Z,0.00
2022-12-27T04:54:11.772Z,0.00
2022-12-27T04:55:11.784Z,0.00
2022-12-27T04:56:11.760Z,0.00
2022-12-27T04:57:11.785Z,0.00
2022-12-27T04:58:11.738Z,0.00
2022-12-27T04:59:11.738Z,0.00
2022-12-27T05:00:11.797Z,0.00
2022-12-27T05:01:14.282Z,0.00
2022-12-27T05:02:11.797Z,0.00
2022-12-27T05:03:11.813Z,0.00
2022-12-27T05:04:11.671Z,0.00
2022-12-27T05:05:11.682Z,0.00
2022-12-27T05:06:11.644Z,0.00
2022-12-27T05:07:11.611Z,0.00
2022-12-27T05:08:11.644Z,0.00
2022-12-27T05:09:11.640Z,0.00
2022-12-27T05:10:11.613Z,0.00
2022-12-27T05:11:11.605Z,0.00
2022-12-27T05:12:11.600Z,0.00
2022-12-27T05:13:11.567Z,0.00
2022-12-27T05:14:11.593Z,0.00
2022-12-27T05:15:11.544Z,0.00
2022-12-27T05:16:11.604Z,0.00
2022-12-27T05:17:11.553Z,0.00
2022-12-27T05:18:11.591Z,0.00
2022-12-27T05:19:11.531Z,0.00
2022-12-27T05:20:11.510Z,0.00
2022-12-27T05:21:11.571Z,0.00
2022-12-27T05:22:11.488Z,0.00
2022-12-27T05:23:11.482Z,0.00
2022-12-27T05:24:11.464Z,0.00
2022-12-27T05:25:11.647Z,0.00
2022-12-27T05:26:11.449Z,0.00
2022-12-27T05:27:11.413Z,0.00
2022-12-27T05:28:11.425Z,0.00
2022-12-27T05:29:11.470Z,0.00
2022-12-27T05:30:11.408Z,0.00
2022-12-27T05:31:11.400Z,0.00
2022-12-27T05:32:13.459Z,0.00
2022-12-27T05:33:11.459Z,0.00
2022-12-27T05:34:11.371Z,0.00
2022-12-27T05:35:11.353Z,0.00
2022-12-27T05:36:11.398Z,0.00
2022-12-27T05:37:11.376Z,0.00
2022-12-27T05:38:11.360Z,0.00
2022-12-27T05:39:11.359Z,0.00
2022-12-27T05:40:11.579Z,0.00
2022-12-27T05:41:11.332Z,0.00
2022-12-27T05:42:11.283Z,0.00
2022-12-27T05:43:11.309Z,0.00
2022-12-27T05:44:11.321Z,0.00
2022-12-27T05:45:11.311Z,0.00
2022-12-27T05:46:11.358Z,0.00
2022-12-27T05:47:11.301Z,0.00
2022-12-27T05:48:11.234Z,0.00
2022-12-27T05:49:11.203Z,0.00
2022-12-27T05:50:11.220Z,0.00
2022-12-27T05:51:11.247Z,0.00
2022-12-27T05:52:11.169Z,0.00
2022-12-27T05:53:11.165Z,0.00
2022-12-27T05:54:11.155Z,0.00
2022-12-27T05:55:11.260Z,0.00
2022-12-27T05:56:11.138Z,0.00
2022-12-27T05:57:11.207Z,0.00
2022-12-27T05:58:11.133Z,0.00
2022-12-27T05:59:11.117Z,0.00
2022-12-27T06:00:11.169Z,0.00
2022-12-27T06:01:11.257Z,0.00
2022-12-27T06:02:11.231Z,0.00
2022-12-27T06:03:11.200Z,0.00
2022-12-27T06:04:11.129Z,0.00
2022-12-27T06:05:11.082Z,0.00
2022-12-27T06:06:11.046Z,0.00
2022-12-27T06:07:11.068Z,0.00
2022-12-27T06:08:11.042Z,0.00
2022-12-27T06:09:11.051Z,0.00
2022-12-27T06:10:11.004Z,0.00
2022-12-27T06:11:11.044Z,0.00
2022-12-27T06:12:11.025Z,0.00
2022-12-27T06:13:10.947Z,0.00
2022-12-27T06:14:11.015Z,0.00
2022-12-27T06:15:10.991Z,0.00
2022-12-27T06:16:11.006Z,0.00
2022-12-27T06:17:10.939Z,0.00
2022-12-27T06:18:10.921Z,0.00
2022-12-27T06:19:10.899Z,0.00
2022-12-27T06:20:10.895Z,0.00
2022-12-27T06:21:10.895Z,0.00
2022-12-27T06:22:10.916Z,0.00
2022-12-27T06:23:10.882Z,0.00
2022-12-27T06:24:10.888Z,0.00
2022-12-27T06:25:14.376Z,0.00
2022-12-27T06:26:10.849Z,0.00
2022-12-27T06:27:10.895Z,0.00
2022-12-27T06:28:10.890Z,0.00
2022-12-27T06:29:10.789Z,0.00
2022-12-27T06:30:10.792Z,0.00
2022-12-27T06:31:10.977Z,0.00
2022-12-27T06:32:10.832Z,0.00
2022-12-27T06:33:10.767Z,0.00
2022-12-27T06:34:10.786Z,0.00
2022-12-27T06:35:10.741Z,0.00
2022-12-27T06:36:10.734Z,0.00
2022-12-27T06:37:10.769Z,0.00
2022-12-27T06:38:10.754Z,0.00
2022-12-27T06:39:10.758Z,0.00
2022-12-27T06:40:10.707Z,0.00
2022-12-27T06:41:10.700Z,0.00
2022-12-27T06:42:10.693Z,0.00
2022-12-27T06:43:10.691Z,0.00
2022-12-27T06:44:10.671Z,0.00
2022-12-27T06:45:10.635Z,0.00
2022-12-27T06:46:16.852Z,0.00
2022-12-27T06:47:10.659Z,0.00
2022-12-27T06:48:10.646Z,0.00
2022-12-27T06:49:10.635Z,0.00
2022-12-27T06:50:10.611Z,0.00
2022-12-27T06:51:10.652Z,0.00
2022-12-27T06:52:10.600Z,0.00
2022-12-27T06:53:10.620Z,0.00
2022-12-27T06:54:10.579Z,0.00
2022-12-27T06:55:10.483Z,0.00
2022-12-27T06:56:10.598Z,0.00
2022-12-27T06:57:10.575Z,0.00
2022-12-27T06:58:10.481Z,0.00
2022-12-27T06:59:10.446Z,0.00
2022-12-27T07:00:10.511Z,0.00
2022-12-27T07:01:10.602Z,0.00
2022-12-27T07:02:10.647Z,0.00
2022-12-27T07:03:10.543Z,0.00
2022-12-27T07:04:10.424Z,0.00
2022-12-27T07:05:10.498Z,0.00
2022-12-27T07:06:10.389Z,0.00
2022-12-27T07:07:15.411Z,0.00
2022-12-27T07:08:10.382Z,0.00
2022-12-27T07:09:10.397Z,0.00
2022-12-27T07:10:10.376Z,0.00
2022-12-27T07:11:10.437Z,0.00
2022-12-27T07:12:10.321Z,0.00
2022-12-27T07:13:10.336Z,0.00
2022-12-27T07:14:10.324Z,0.00
2022-12-27T07:15:10.285Z,0.00
2022-12-27T07:16:10.305Z,0.00
2022-12-27T07:17:10.306Z,0.00
2022-12-27T07:18:10.270Z,0.00
2022-12-27T07:19:10.241Z,0.00
2022-12-27T07:20:10.269Z,0.00
2022-12-27T07:21:10.228Z,0.00
2022-12-27T07:22:10.233Z,0.00
2022-12-27T07:23:13.087Z,0.00
2022-12-27T07:24:10.237Z,0.00
2022-12-27T07:25:10.244Z,0.00
2022-12-27T07:26:10.242Z,0.00
2022-12-27T07:27:10.217Z,0.00
2022-12-27T07:28:10.162Z,0.00
2022-12-27T07:29:10.133Z,0.00
2022-12-27T07:30:10.184Z,0.00
2022-12-27T07:31:10.127Z,0.00
2022-12-27T07:32:10.292Z,0.00
2022-12-27T07:33:10.173Z,0.00
2022-12-27T07:34:10.098Z,0.00
2022-12-27T07:35:10.086Z,0.00
2022-12-27T07:36:10.134Z,0.00
2022-12-27T07:37:10.157Z,0.00
2022-12-27T07:38:10.105Z,0.00
2022-12-27T07:39:10.068Z,0.00
2022-12-27T07:40:10.047Z,0.00
2022-12-27T07:41:10.106Z,0.00
2022-12-27T07:42:10.047Z,0.00
2022-12-27T07:43:10.074Z,0.00
2022-12-27T07:44:10.076Z,0.00
2022-12-27T07:45:09.975Z,0.00
2022-12-27T07:46:10.012Z,0.00
2022-12-27T07:47:10.063Z,0.00
2022-12-27T07:48:09.991Z,0.00
2022-12-27T07:49:17.156Z,0.00
2022-12-27T07:50:10.029Z,0.00
2022-12-27T07:51:09.935Z,0.00
2022-12-27T07:52:09.900Z,0.00
2022-12-27T07:53:09.984Z,5.62
2022-12-27T07:54:09.893Z,5.62
2022-12-27T07:55:09.880Z,5.62
2022-12-27T07:56:09.935Z,5.62
2022-12-27T07:57:09.888Z,5.62
2022-12-27T07:58:09.883Z,5.62
2022-12-27T07:59:09.960Z,5.62
2022-12-27T08:00:09.831Z,5.62
2022-12-27T08:01:09.940Z,5.62
2022-12-27T08:02:10.029Z,5.62
2022-12-27T08:03:09.857Z,5.62
2022-12-27T08:04:09.801Z,5.62
2022-12-27T08:05:09.794Z,5.62
2022-12-27T08:06:09.778Z,5.62
2022-12-27T08:07:09.813Z,5.62
2022-12-27T08:08:09.744Z,5.62
2022-12-27T08:09:09.756Z,5.62
2022-12-27T08:10:09.812Z,5.62
2022-12-27T08:11:09.724Z,11.25
2022-12-27T08:12:09.751Z,11.25
2022-12-27T08:13:09.757Z,11.25
2022-12-27T08:14:09.789Z,11.25
2022-12-27T08:15:09.693Z,11.25
2022-12-27T08:16:09.670Z,11.25
2022-12-27T08:17:09.744Z,11.25
2022-12-27T08:18:09.659Z,11.25
2022-12-27T08:19:09.702Z,11.25
2022-12-27T08:20:09.656Z,11.25
2022-12-27T08:21:09.652Z,11.25
2022-12-27T08:22:09.592Z,11.25
2022-12-27T08:23:09.609Z,11.25
2022-12-27T08:24:09.577Z,11.25
2022-12-27T08:25:09.627Z,11.25
2022-12-27T08:26:09.557Z,11.25
2022-12-27T08:27:09.594Z,11.25
2022-12-27T08:28:09.578Z,11.25
2022-12-27T08:29:09.609Z,11.25
2022-12-27T08:30:09.578Z,11.25
2022-12-27T08:31:09.703Z,11.25
2022-12-27T08:32:09.522Z,11.25
2022-12-27T08:33:09.514Z,11.25
2022-12-27T08:34:09.477Z,11.25
2022-12-27T08:35:41.914Z,16.88
2022-12-27T08:37:09.476Z,16.88
2022-12-27T08:38:09.450Z,16.88
2022-12-27T08:39:09.475Z,16.88
2022-12-27T08:40:09.438Z,16.88
2022-12-27T08:41:09.462Z,16.88
2022-12-27T08:42:09.421Z,22.50
2022-12-27T08:43:09.430Z,16.88
2022-12-27T08:44:09.437Z,16.88
2022-12-27T08:45:09.377Z,22.50
2022-12-27T08:46:09.464Z,16.88
2022-12-27T08:47:09.424Z,16.88
2022-12-27T08:48:09.434Z,22.50
2022-12-27T08:49:09.347Z,16.88
2022-12-27T08:50:09.663Z,22.50
2022-12-27T08:51:13.117Z,22.50
2022-12-27T08:52:09.338Z,22.50
2022-12-27T08:53:09.303Z,22.50
2022-12-27T08:54:09.351Z,22.50
2022-12-27T08:55:09.303Z,22.50
2022-12-27T08:56:09.324Z,22.50
2022-12-27T08:57:09.321Z,16.88
2022-12-27T08:58:15.701Z,22.50
2022-12-27T08:59:09.289Z,16.88
2022-12-27T09:00:09.242Z,22.50
2022-12-27T09:01:09.260Z,16.88
2022-12-27T09:02:09.296Z,22.50
2022-12-27T09:03:09.260Z,22.50
2022-12-27T09:04:09.209Z,28.12
2022-12-27T09:05:09.234Z,28.12
2022-12-27T09:06:09.166Z,28.12
2022-12-27T09:07:09.164Z,22.50
2022-12-27T09:08:09.186Z,22.50
2022-12-27T09:09:09.226Z,28.12
2022-12-27T09:10:09.113Z,22.50
2022-12-27T09:11:09.133Z,22.50
2022-12-27T09:12:09.539Z,22.50
2022-12-27T09:13:09.109Z,22.50
2022-12-27T09:14:09.072Z,22.50
2022-12-27T09:15:09.090Z,22.50
2022-12-27T09:16:09.152Z,22.50
2022-12-27T09:17:09.061Z,22.50
2022-12-27T09:18:09.116Z,22.50
2022-12-27T09:19:09.040Z,28.12
2022-12-27T09:20:09.013Z,28.12
2022-12-27T09:21:09.056Z,28.12
2022-12-27T09:22:09.035Z,28.12
2022-12-27T09:23:08.998Z,28.12
2022-12-27T09:24:09.000Z,33.75
2022-12-27T09:25:09.017Z,33.75
2022-12-27T09:26:09.013Z,28.12
2022-12-27T09:27:09.007Z,28.12
2022-12-27T09:28:08.963Z,28.12
2022-12-27T09:29:08.959Z,28.12
2022-12-27T09:30:08.952Z,28.12
2022-12-27T09:31:08.979Z,33.75
2022-12-27T09:32:08.963Z,28.12
2022-12-27T09:33:08.898Z,28.12
2022-12-27T09:34:09.030Z,28.12
2022-12-27T09:35:08.889Z,33.75
2022-12-27T09:36:08.853Z,33.75
2022-12-27T09:37:08.852Z,33.75
2022-12-27T09:38:08.914Z,33.75
2022-12-27T09:39:08.869Z,33.75
2022-12-27T09:40:08.813Z,33.75
2022-12-27T09:41:08.811Z,39.38
2022-12-27T09:43:20.667Z,33.75
2022-12-27T09:44:08.840Z,28.12
2022-12-27T09:45:08.863Z,33.75
2022-12-27T09:46:08.837Z,28.12
2022-12-27T09:47:08.776Z,33.75
2022-12-27T09:48:08.751Z,28.12
2022-12-27T09:49:08.744Z,28.12
2022-12-27T09:50:08.747Z,39.38
2022-12-27T09:51:08.816Z,33.75
2022-12-27T09:52:08.724Z,33.75
2022-12-27T09:53:08.721Z,33.75
2022-12-27T09:54:08.707Z,39.38
2022-12-27T09:55:08.670Z,33.75
2022-12-27T09:56:08.672Z,33.75
2022-12-27T09:57:19.903Z,33.75
2022-12-27T09:58:08.744Z,33.75
2022-12-27T09:59:08.652Z,33.75
2022-12-27T10:00:08.664Z,33.75
2022-12-27T10:01:08.640Z,33.75
2022-12-27T10:02:08.707Z,28.12
2022-12-27T10:03:08.591Z,28.12
2022-12-27T10:04:08.638Z,28.12
2022-12-27T10:05:23.938Z,33.75
2022-12-27T10:06:08.589Z,33.75
2022-12-27T10:07:08.604Z,28.12
2022-12-27T10:08:08.550Z,28.12
2022-12-27T10:09:08.545Z,22.50
2022-12-27T10:10:08.550Z,28.12
2022-12-27T10:11:08.562Z,28.12
2022-12-27T10:12:08.528Z,28.12
2022-12-27T10:13:08.509Z,33.75
2022-12-27T10:14:08.477Z,39.38
2022-12-27T10:15:08.499Z,33.75
2022-12-27T10:16:08.905Z,28.12
2022-12-27T10:17:08.488Z,33.75
2022-12-27T10:18:08.449Z,33.75
2022-12-27T10:19:08.496Z,39.38
2022-12-27T10:20:08.447Z,28.12
2022-12-27T10:21:08.447Z,28.12
2022-12-27T10:22:08.401Z,33.75
2022-12-27T10:23:08.430Z,39.38
2022-12-27T10:24:08.401Z,39.38
2022-12-27T10:25:08.392Z,45.00
2022-12-27T10:26:08.365Z,33.75
2022-12-27T10:27:08.353Z,33.75
2022-12-27T10:28:08.367Z,33.75
2022-12-27T10:29:08.367Z,33.75
2022-12-27T10:30:08.358Z,39.38
2022-12-27T10:31:08.381Z,33.75
2022-12-27T10:32:08.296Z,28.12
2022-12-27T10:33:08.368Z,33.75
2022-12-27T10:34:10.742Z,39.38
2022-12-27T10:35:08.276Z,33.75
2022-12-27T10:36:08.376Z,33.75
2022-12-27T10:37:08.277Z,33.75
2022-12-27T10:38:08.262Z,39.38
2022-12-27T10:39:08.258Z,33.75
2022-12-27T10:40:08.272Z,28.12
2022-12-27T10:41:08.221Z,33.75
2022-12-27T10:42:08.218Z,33.75
2022-12-27T10:43:08.252Z,33.75
2022-12-27T10:44:08.210Z,39.38
2022-12-27T10:45:08.194Z,39.38
2022-12-27T10:46:08.221Z,39.38
2022-12-27T10:47:08.230Z,45.00
2022-12-27T10:48:08.900Z,33.75
2022-12-27T10:49:20.608Z,33.75
2022-12-27T10:50:08.316Z,33.75
2022-12-27T10:51:08.125Z,39.38
2022-12-27T10:52:08.140Z,45.00
2022-12-27T10:53:08.115Z,33.75
2022-12-27T10:54:08.205Z,33.75
2022-12-27T10:55:08.121Z,33.75
2022-12-27T10:56:08.063Z,45.00
2022-12-27T10:57:08.091Z,45.00
2022-12-27T10:58:08.064Z,39.38
2022-12-27T10:59:08.081Z,45.00
2022-12-27T11:00:08.058Z,45.00
2022-12-27T11:01:08.198Z,39.38
2022-12-27T11:02:08.196Z,39.38
2022-12-27T11:03:08.086Z,39.38
2022-12-27T11:04:08.016Z,45.00
2022-12-27T11:05:08.034Z,45.00
2022-12-27T11:06:08.007Z,39.38
2022-12-27T11:07:07.969Z,33.75
2022-12-27T11:08:08.002Z,39.38
2022-12-27T11:09:07.965Z,39.38
2022-12-27T11:10:07.955Z,39.38
2022-12-27T11:11:07.968Z,33.75
2022-12-27T11:12:07.920Z,28.12
2022-12-27T11:13:07.942Z,28.12
2022-12-27T11:14:07.902Z,33.75
2022-12-27T11:15:07.881Z,39.38
2022-12-27T11:16:07.922Z,28.12
2022-12-27T11:17:08.061Z,45.00
2022-12-27T11:18:07.868Z,45.00
2022-12-27T11:19:07.890Z,39.38
2022-12-27T11:20:07.853Z,39.38
2022-12-27T11:21:10.610Z,45.00
2022-12-27T11:22:07.837Z,39.38
2022-12-27T11:23:07.850Z,33.75
2022-12-27T11:24:07.828Z,39.38
2022-12-27T11:25:07.837Z,33.75
2022-12-27T11:26:07.797Z,45.00
2022-12-27T11:27:07.799Z,45.00
2022-12-27T11:28:07.828Z,45.00
2022-12-27T11:29:07.767Z,39.38
2022-12-27T11:30:07.724Z,33.75
2022-12-27T11:31:07.843Z,33.75
2022-12-27T11:32:07.739Z,39.38
2022-12-27T11:33:07.746Z,39.38
2022-12-27T11:34:07.692Z,33.75
2022-12-27T11:35:07.688Z,33.75
2022-12-27T11:36:07.732Z,45.00
2022-12-27T11:37:07.700Z,39.38
2022-12-27T11:38:07.678Z,45.00
2022-12-27T11:39:07.700Z,39.38
2022-12-27T11:40:07.699Z,33.75
2022-12-27T11:41:07.647Z,33.75
2022-12-27T11:42:07.616Z,39.38
2022-12-27T11:43:07.637Z,45.00
2022-12-27T11:44:07.607Z,45.00
2022-12-27T11:45:07.718Z,39.38
2022-12-27T11:46:07.581Z,39.38
2022-12-27T11:47:07.635Z,39.38
2022-12-27T11:48:07.591Z,39.38
2022-12-27T11:49:07.617Z,39.38
2022-12-27T11:50:07.546Z,33.75
2022-12-27T11:51:07.556Z,39.38
2022-12-27T11:52:07.535Z,45.00
2022-12-27T11:53:07.556Z,45.00
2022-12-27T11:54:07.518Z,45.00
2022-12-27T11:55:07.553Z,45.00
2022-12-27T11:56:07.481Z,45.00
2022-12-27T11:57:07.541Z,39.38
2022-12-27T11:58:07.497Z,39.38
2022-12-27T11:59:08.465Z,33.75
2022-12-27T12:00:07.454Z,39.38
2022-12-27T12:01:07.429Z,33.75
2022-12-27T12:02:07.568Z,39.38
2022-12-27T12:03:07.529Z,39.38
2022-12-27T12:04:07.409Z,39.38
2022-12-27T12:05:07.401Z,39.38
2022-12-27T12:06:07.392Z,39.38
2022-12-27T12:07:07.481Z,39.38
2022-12-27T12:08:07.392Z,33.75
2022-12-27T12:09:07.400Z,33.75
2022-12-27T12:10:07.364Z,39.38
2022-12-27T12:11:07.364Z,39.38
2022-12-27T12:12:07.449Z,33.75
2022-12-27T12:13:07.300Z,33.75
2022-12-27T12:14:07.313Z,33.75
2022-12-27T12:15:07.333Z,33.75
2022-12-27T12:16:07.371Z,33.75
2022-12-27T12:17:07.276Z,33.75
2022-12-27T12:18:07.348Z,33.75
2022-12-27T12:19:07.257Z,33.75
2022-12-27T12:20:07.265Z,33.75
2022-12-27T12:21:07.239Z,33.75
2022-12-27T12:22:07.261Z,33.75
2022-12-27T12:23:07.246Z,33.75
2022-12-27T12:24:07.216Z,33.75
2022-12-27T12:25:07.347Z,33.75
2022-12-27T12:26:07.458Z,33.75
2022-12-27T12:27:07.163Z,33.75
2022-12-27T12:28:23.329Z,33.75
2022-12-27T12:29:07.183Z,33.75
2022-12-27T12:30:07.249Z,39.38
2022-12-27T12:31:07.125Z,39.38
2022-12-27T12:32:07.309Z,39.38
2022-12-27T12:33:07.121Z,33.75
2022-12-27T12:34:07.155Z,33.75
2022-12-27T12:35:07.108Z,33.75
2022-12-27T12:36:07.238Z,33.75
2022-12-27T12:37:07.102Z,39.38
2022-12-27T12:38:07.147Z,33.75
2022-12-27T12:39:07.130Z,33.75
2022-12-27T12:40:07.106Z,33.75
2022-12-27T12:41:07.035Z,33.75
2022-12-27T12:42:07.035Z,33.75
2022-12-27T12:43:07.032Z,39.38
2022-12-27T12:44:07.030Z,33.75
2022-12-27T12:45:06.995Z,33.75
2022-12-27T12:46:07.084Z,33.75
2022-12-27T12:47:06.971Z,33.75
2022-12-27T12:48:07.018Z,33.75
2022-12-27T12:49:06.965Z,33.75
2022-12-27T12:50:13.056Z,33.75
2022-12-27T12:51:06.939Z,33.75
2022-12-27T12:52:07.120Z,33.75
2022-12-27T12:53:06.970Z,33.75
2022-12-27T12:54:06.917Z,33.75
2022-12-27T12:55:06.951Z,33.75
2022-12-27T12:56:06.991Z,33.75
2022-12-27T12:57:06.879Z,33.75
2022-12-27T12:58:06.892Z,33.75
2022-12-27T12:59:06.893Z,33.75
2022-12-27T13:00:06.962Z,33.75
2022-12-27T13:01:07.130Z,33.75
2022-12-27T13:02:07.113Z,33.75
2022-12-27T13:03:07.083Z,33.75
2022-12-27T13:04:06.894Z,33.75
2022-12-27T13:05:06.817Z,33.75
2022-12-27T13:06:06.790Z,33.75
2022-12-27T13:07:06.894Z,33.75
2022-12-27T13:08:06.758Z,28.12
2022-12-27T13:09:06.800Z,28.12
2022-12-27T13:10:06.749Z,28.12